This is the latest recevied weather packets stored in our database for station/object GW7204. If no packets are shown the sender has not sent any weather packets the latest 10 day(s).
| Time | Temp. | Humidity | Pressure | Rain* | Wind** | Luminosity | Snow |
|---|---|---|---|---|---|---|---|
| 1777373323 | 12.78° C | 99% | 1011.5 hPa | 26.92 mm | - | - | - |
| 1777371886 | 12.22° C | 99% | 1011.1 hPa | 26.92 mm | - | - | - |
| 1777371509 | 12.22° C | 99% | 1010.8 hPa | 26.92 mm | - | - | - |
| 1777367892 | 12.22° C | 99% | 1008.8 hPa | 26.92 mm | - | - | - |
| 1777366827 | 12.22° C | 99% | 1007.1 hPa | 26.92 mm | - | - | - |
| 1777366464 | 12.22° C | 99% | 1007.4 hPa | 26.92 mm | - | - | - |
| 1777365750 | 12.78° C | 99% | 1010.4 hPa | 26.92 mm | - | - | - |
| 1777363960 | 12.78° C | 99% | 1013.2 hPa | 26.92 mm | - | - | - |
| 1777361787 | 13.33° C | 99% | 1012.8 hPa | 24.13 mm | - | - | - |
| 1777360346 | 13.33° C | 99% | 1012.8 hPa | 19.56 mm | - | - | - |
| 1777356025 | 14.44° C | 99% | 1012.5 hPa | 6.6 mm | - | - | - |
| 1777350613 | 15.56° C | 99% | 1014.5 hPa | 2.03 mm | - | - | - |
| 1777349561 | 15.56° C | 99% | 1014.9 hPa | 0.51 mm | - | - | - |
| 1777348489 | 15.56° C | 99% | 1015.2 hPa | 10.16 mm | - | - | - |
| 1777347395 | 15.56° C | 99% | 1015.5 hPa | 8.38 mm | - | - | - |
| 1777346688 | 15.56° C | 99% | 1015.9 hPa | 6.35 mm | - | - | - |
| 1777343791 | 16.11° C | 96% | 1015.2 hPa | 1.27 mm | - | - | - |
| 1777340930 | 17.78° C | 81% | 1014.5 hPa | 0 mm | - | - | - |
| 1777340547 | 18.33° C | 79% | 1014.5 hPa | 0 mm | - | - | - |
| 1777340207 | 18.33° C | 78% | 1014.2 hPa | 0 mm | - | - | - |
| 1777337298 | 19.44° C | 69% | 1013.8 hPa | 0 mm | - | - | - |
| 1777335889 | 20.56° C | 63% | 1014.2 hPa | 0 mm | - | - | - |
| 1777332627 | 22.22° C | 59% | 1014.2 hPa | 0 mm | - | - | - |
| 1777330491 | 23.33° C | 57% | 1013.8 hPa | 0 mm | - | - | - |
| 1777326860 | 24.44° C | 56% | 1013.8 hPa | 0 mm | - | - | - |
* Rain since midnight (hover to see other rain measurements)
** Current wind speed in m/s (hover to see current wind gust speed)